sensor_id;sensor_type;location;lat;lon;timestamp;pressure;altitude;pressure_sealevel;temperature
18782;BMP180;9519;51.890;8.970;2023-04-01T00:04:16;97095.00;;;8.70
18782;BMP180;9519;51.890;8.970;2023-04-01T00:09:20;97101.00;;;8.70
18782;BMP180;9519;51.890;8.970;2023-04-01T00:14:22;97094.00;;;8.70
18782;BMP180;9519;51.890;8.970;2023-04-01T00:19:24;97100.00;;;8.80
18782;BMP180;9519;51.890;8.970;2023-04-01T00:24:28;97111.00;;;8.80
18782;BMP180;9519;51.890;8.970;2023-04-01T00:29:30;97097.00;;;8.80
18782;BMP180;9519;51.890;8.970;2023-04-01T00:34:33;97113.00;;;8.80
18782;BMP180;9519;51.890;8.970;2023-04-01T00:39:36;97113.00;;;8.80
18782;BMP180;9519;51.890;8.970;2023-04-01T00:44:39;97114.00;;;8.80
18782;BMP180;9519;51.890;8.970;2023-04-01T00:49:45;97105.00;;;8.70
18782;BMP180;9519;51.890;8.970;2023-04-01T00:54:56;97103.00;;;8.70
18782;BMP180;9519;51.890;8.970;2023-04-01T01:00:04;97120.00;;;8.70
18782;BMP180;9519;51.890;8.970;2023-04-01T01:05:08;97112.00;;;8.70
18782;BMP180;9519;51.890;8.970;2023-04-01T01:10:19;97113.00;;;8.70
18782;BMP180;9519;51.890;8.970;2023-04-01T01:15:30;97107.00;;;8.70
18782;BMP180;9519;51.890;8.970;2023-04-01T01:21:03;97104.00;;;8.80
18782;BMP180;9519;51.890;8.970;2023-04-01T01:26:46;97091.00;;;8.70
18782;BMP180;9519;51.890;8.970;2023-04-01T01:32:03;97096.00;;;8.70
18782;BMP180;9519;51.890;8.970;2023-04-01T01:37:12;97093.00;;;8.60
18782;BMP180;9519;51.890;8.970;2023-04-01T01:42:18;97088.00;;;8.60
18782;BMP180;9519;51.890;8.970;2023-04-01T01:47:23;97083.00;;;8.60
18782;BMP180;9519;51.890;8.970;2023-04-01T01:52:27;97091.00;;;8.60
18782;BMP180;9519;51.890;8.970;2023-04-01T01:57:34;97101.00;;;8.60
18782;BMP180;9519;51.890;8.970;2023-04-01T02:02:36;97093.00;;;8.60
18782;BMP180;9519;51.890;8.970;2023-04-01T02:07:43;97081.00;;;8.60
18782;BMP180;9519;51.890;8.970;2023-04-01T02:12:49;97090.00;;;8.60
18782;BMP180;9519;51.890;8.970;2023-04-01T02:17:53;97087.00;;;8.60
18782;BMP180;9519;51.890;8.970;2023-04-01T02:22:59;97061.00;;;8.50
18782;BMP180;9519;51.890;8.970;2023-04-01T02:28:04;97086.00;;;8.50
18782;BMP180;9519;51.890;8.970;2023-04-01T02:33:07;97063.00;;;8.50
18782;BMP180;9519;51.890;8.970;2023-04-01T02:38:11;97072.00;;;8.50
18782;BMP180;9519;51.890;8.970;2023-04-01T02:43:13;97082.00;;;8.50
18782;BMP180;9519;51.890;8.970;2023-04-01T02:48:16;97078.00;;;8.50
18782;BMP180;9519;51.890;8.970;2023-04-01T02:53:20;97071.00;;;8.50
18782;BMP180;9519;51.890;8.970;2023-04-01T02:58:22;97084.00;;;8.50
18782;BMP180;9519;51.890;8.970;2023-04-01T03:03:24;97078.00;;;8.50
18782;BMP180;9519;51.890;8.970;2023-04-01T03:08:27;97091.00;;;8.50
18782;BMP180;9519;51.890;8.970;2023-04-01T03:13:29;97101.00;;;8.50
18782;BMP180;9519;51.890;8.970;2023-04-01T03:18:31;97080.00;;;8.50
18782;BMP180;9519;51.890;8.970;2023-04-01T03:23:35;97101.00;;;8.50
18782;BMP180;9519;51.890;8.970;2023-04-01T03:28:37;97084.00;;;8.50
18782;BMP180;9519;51.890;8.970;2023-04-01T03:33:39;97095.00;;;8.50
18782;BMP180;9519;51.890;8.970;2023-04-01T03:38:44;97108.00;;;8.50
18782;BMP180;9519;51.890;8.970;2023-04-01T03:43:46;97097.00;;;8.50
18782;BMP180;9519;51.890;8.970;2023-04-01T03:48:48;97104.00;;;8.50
18782;BMP180;9519;51.890;8.970;2023-04-01T03:53:51;97106.00;;;8.50
18782;BMP180;9519;51.890;8.970;2023-04-01T03:58:53;97097.00;;;8.50
18782;BMP180;9519;51.890;8.970;2023-04-01T04:03:56;97103.00;;;8.60
18782;BMP180;9519;51.890;8.970;2023-04-01T04:08:59;97096.00;;;8.60
18782;BMP180;9519;51.890;8.970;2023-04-01T04:14:01;97101.00;;;8.60
18782;BMP180;9519;51.890;8.970;2023-04-01T04:19:04;97112.00;;;8.60
18782;BMP180;9519;51.890;8.970;2023-04-01T04:24:08;97113.00;;;8.50
18782;BMP180;9519;51.890;8.970;2023-04-01T04:29:10;97116.00;;;8.50
18782;BMP180;9519;51.890;8.970;2023-04-01T04:34:12;97114.00;;;8.50
18782;BMP180;9519;51.890;8.970;2023-04-01T04:39:16;97117.00;;;8.50
18782;BMP180;9519;51.890;8.970;2023-04-01T04:44:18;97115.00;;;8.50
18782;BMP180;9519;51.890;8.970;2023-04-01T04:49:20;97117.00;;;8.40
18782;BMP180;9519;51.890;8.970;2023-04-01T04:54:24;97124.00;;;8.40
18782;BMP180;9519;51.890;8.970;2023-04-01T04:59:26;97123.00;;;8.40
18782;BMP180;9519;51.890;8.970;2023-04-01T05:04:28;97118.00;;;8.40
18782;BMP180;9519;51.890;8.970;2023-04-01T05:09:31;97124.00;;;8.40
18782;BMP180;9519;51.890;8.970;2023-04-01T05:14:34;97122.00;;;8.50
18782;BMP180;9519;51.890;8.970;2023-04-01T05:19:37;97109.00;;;8.40
18782;BMP180;9519;51.890;8.970;2023-04-01T05:24:40;97126.00;;;8.50
18782;BMP180;9519;51.890;8.970;2023-04-01T05:29:42;97116.00;;;8.50
18782;BMP180;9519;51.890;8.970;2023-04-01T05:34:44;97126.00;;;8.50
18782;BMP180;9519;51.890;8.970;2023-04-01T05:39:48;97130.00;;;8.50
18782;BMP180;9519;51.890;8.970;2023-04-01T05:44:50;97128.00;;;8.50
18782;BMP180;9519;51.890;8.970;2023-04-01T05:49:52;97127.00;;;8.60
18782;BMP180;9519;51.890;8.970;2023-04-01T05:54:55;97146.00;;;8.60
18782;BMP180;9519;51.890;8.970;2023-04-01T05:59:57;97143.00;;;8.60
18782;BMP180;9519;51.890;8.970;2023-04-01T06:05:13;97140.00;;;8.60
18782;BMP180;9519;51.890;8.970;2023-04-01T06:10:20;97143.00;;;8.70
18782;BMP180;9519;51.890;8.970;2023-04-01T06:15:36;97137.00;;;8.70
18782;BMP180;9519;51.890;8.970;2023-04-01T06:20:47;97145.00;;;8.70
18782;BMP180;9519;51.890;8.970;2023-04-01T06:26:18;97151.00;;;8.70
18782;BMP180;9519;51.890;8.970;2023-04-01T06:31:45;97155.00;;;8.80
18782;BMP180;9519;51.890;8.970;2023-04-01T06:37:14;97159.00;;;8.80
18782;BMP180;9519;51.890;8.970;2023-04-01T06:42:37;97168.00;;;8.80
18782;BMP180;9519;51.890;8.970;2023-04-01T06:47:56;97156.00;;;8.80
18782;BMP180;9519;51.890;8.970;2023-04-01T06:53:09;97165.00;;;8.80
18782;BMP180;9519;51.890;8.970;2023-04-01T06:58:21;97176.00;;;8.90
18782;BMP180;9519;51.890;8.970;2023-04-01T07:03:33;97171.00;;;9.00
18782;BMP180;9519;51.890;8.970;2023-04-01T07:08:40;97188.00;;;9.00
18782;BMP180;9519;51.890;8.970;2023-04-01T07:13:51;97182.00;;;9.10
18782;BMP180;9519;51.890;8.970;2023-04-01T07:19:02;97183.00;;;9.10
18782;BMP180;9519;51.890;8.970;2023-04-01T07:24:11;97183.00;;;9.10
18782;BMP180;9519;51.890;8.970;2023-04-01T07:29:18;97192.00;;;9.20
18782;BMP180;9519;51.890;8.970;2023-04-01T07:34:26;97190.00;;;9.20
18782;BMP180;9519;51.890;8.970;2023-04-01T07:39:40;97202.00;;;9.30
18782;BMP180;9519;51.890;8.970;2023-04-01T07:44:59;97205.00;;;9.30
18782;BMP180;9519;51.890;8.970;2023-04-01T07:50:16;97213.00;;;9.30
18782;BMP180;9519;51.890;8.970;2023-04-01T07:55:27;97206.00;;;9.40
18782;BMP180;9519;51.890;8.970;2023-04-01T08:00:40;97220.00;;;9.40
18782;BMP180;9519;51.890;8.970;2023-04-01T08:05:54;97225.00;;;9.50
18782;BMP180;9519;51.890;8.970;2023-04-01T08:11:08;97225.00;;;9.50
18782;BMP180;9519;51.890;8.970;2023-04-01T08:16:23;97234.00;;;9.60
18782;BMP180;9519;51.890;8.970;2023-04-01T08:21:37;97239.00;;;9.70
18782;BMP180;9519;51.890;8.970;2023-04-01T08:26:47;97238.00;;;9.80
18782;BMP180;9519;51.890;8.970;2023-04-01T08:31:56;97256.00;;;9.90
18782;BMP180;9519;51.890;8.970;2023-04-01T08:37:04;97248.00;;;9.90
18782;BMP180;9519;51.890;8.970;2023-04-01T08:42:31;97244.00;;;10.00
18782;BMP180;9519;51.890;8.970;2023-04-01T08:47:59;97259.00;;;10.10
18782;BMP180;9519;51.890;8.970;2023-04-01T08:53:16;97271.00;;;10.10
18782;BMP180;9519;51.890;8.970;2023-04-01T08:58:58;97264.00;;;10.10
18782;BMP180;9519;51.890;8.970;2023-04-01T09:04:39;97265.00;;;10.10
18782;BMP180;9519;51.890;8.970;2023-04-01T09:16:13;97281.00;;;10.30
18782;BMP180;9519;51.890;8.970;2023-04-01T09:21:34;97277.00;;;10.50
18782;BMP180;9519;51.890;8.970;2023-04-01T09:27:04;97284.00;;;10.60
18782;BMP180;9519;51.890;8.970;2023-04-01T09:38:18;97288.00;;;10.70
18782;BMP180;9519;51.890;8.970;2023-04-01T09:43:27;97304.00;;;10.60
18782;BMP180;9519;51.890;8.970;2023-04-01T09:54:36;97310.00;;;10.70
18782;BMP180;9519;51.890;8.970;2023-04-01T10:00:32;97308.00;;;10.70
18782;BMP180;9519;51.890;8.970;2023-04-01T10:13:05;97317.00;;;11.10
18782;BMP180;9519;51.890;8.970;2023-04-01T10:18:56;97320.00;;;11.30
18782;BMP180;9519;51.890;8.970;2023-04-01T10:36:47;97336.00;;;11.40
18782;BMP180;9519;51.890;8.970;2023-04-01T10:42:38;97336.00;;;11.30
18782;BMP180;9519;51.890;8.970;2023-04-01T10:54:20;97341.00;;;11.20
18782;BMP180;9519;51.890;8.970;2023-04-01T11:00:18;97346.00;;;11.30
18782;BMP180;9519;51.890;8.970;2023-04-01T11:06:12;97348.00;;;11.40
18782;BMP180;9519;51.890;8.970;2023-04-01T11:12:11;97338.00;;;11.50
18782;BMP180;9519;51.890;8.970;2023-04-01T11:18:17;97352.00;;;11.60
18782;BMP180;9519;51.890;8.970;2023-04-01T11:23:45;97362.00;;;11.70
18782;BMP180;9519;51.890;8.970;2023-04-01T11:29:33;97364.00;;;11.70
18782;BMP180;9519;51.890;8.970;2023-04-01T11:35:00;97368.00;;;11.60
18782;BMP180;9519;51.890;8.970;2023-04-01T11:40:18;97364.00;;;11.50
18782;BMP180;9519;51.890;8.970;2023-04-01T11:45:39;97365.00;;;11.60
18782;BMP180;9519;51.890;8.970;2023-04-01T11:51:19;97382.00;;;11.50
18782;BMP180;9519;51.890;8.970;2023-04-01T11:56:49;97391.00;;;11.50
18782;BMP180;9519;51.890;8.970;2023-04-01T12:02:05;97396.00;;;11.60
18782;BMP180;9519;51.890;8.970;2023-04-01T12:07:22;97407.00;;;11.60
18782;BMP180;9519;51.890;8.970;2023-04-01T12:12:36;97405.00;;;11.70
18782;BMP180;9519;51.890;8.970;2023-04-01T12:17:55;97414.00;;;11.80
18782;BMP180;9519;51.890;8.970;2023-04-01T12:23:16;97427.00;;;12.00
18782;BMP180;9519;51.890;8.970;2023-04-01T12:28:28;97415.00;;;12.10
18782;BMP180;9519;51.890;8.970;2023-04-01T12:33:56;97422.00;;;12.10
18782;BMP180;9519;51.890;8.970;2023-04-01T12:39:33;97438.00;;;12.10
18782;BMP180;9519;51.890;8.970;2023-04-01T12:45:02;97441.00;;;12.10
18782;BMP180;9519;51.890;8.970;2023-04-01T12:50:45;97439.00;;;12.20
18782;BMP180;9519;51.890;8.970;2023-04-01T12:55:54;97452.00;;;12.20
18782;BMP180;9519;51.890;8.970;2023-04-01T13:01:35;97459.00;;;12.10
18782;BMP180;9519;51.890;8.970;2023-04-01T13:06:57;97472.00;;;12.10
18782;BMP180;9519;51.890;8.970;2023-04-01T13:12:29;97479.00;;;12.00
18782;BMP180;9519;51.890;8.970;2023-04-01T13:17:45;97485.00;;;12.00
18782;BMP180;9519;51.890;8.970;2023-04-01T13:23:04;97495.00;;;12.00
18782;BMP180;9519;51.890;8.970;2023-04-01T13:28:17;97492.00;;;12.00
18782;BMP180;9519;51.890;8.970;2023-04-01T13:33:31;97503.00;;;11.90
18782;BMP180;9519;51.890;8.970;2023-04-01T13:39:02;97498.00;;;11.90
18782;BMP180;9519;51.890;8.970;2023-04-01T13:44:14;97501.00;;;11.90
18782;BMP180;9519;51.890;8.970;2023-04-01T13:55:34;97512.00;;;11.90
18782;BMP180;9519;51.890;8.970;2023-04-01T14:00:51;97517.00;;;12.00
18782;BMP180;9519;51.890;8.970;2023-04-01T14:06:09;97523.00;;;12.10
18782;BMP180;9519;51.890;8.970;2023-04-01T14:11:22;97534.00;;;12.20
18782;BMP180;9519;51.890;8.970;2023-04-01T14:17:02;97538.00;;;12.30
18782;BMP180;9519;51.890;8.970;2023-04-01T14:22:24;97543.00;;;12.40
18782;BMP180;9519;51.890;8.970;2023-04-01T14:27:44;97540.00;;;12.40
18782;BMP180;9519;51.890;8.970;2023-04-01T14:32:57;97549.00;;;12.30
18782;BMP180;9519;51.890;8.970;2023-04-01T14:38:27;97550.00;;;12.40
18782;BMP180;9519;51.890;8.970;2023-04-01T14:43:53;97570.00;;;12.40
18782;BMP180;9519;51.890;8.970;2023-04-01T14:49:00;97569.00;;;12.40
18782;BMP180;9519;51.890;8.970;2023-04-01T14:54:12;97578.00;;;12.40
18782;BMP180;9519;51.890;8.970;2023-04-01T14:59:28;97585.00;;;12.40
18782;BMP180;9519;51.890;8.970;2023-04-01T15:04:57;97583.00;;;12.40
18782;BMP180;9519;51.890;8.970;2023-04-01T15:10:08;97601.00;;;12.40
18782;BMP180;9519;51.890;8.970;2023-04-01T15:15:35;97606.00;;;12.30
18782;BMP180;9519;51.890;8.970;2023-04-01T15:26:47;97623.00;;;12.10
18782;BMP180;9519;51.890;8.970;2023-04-01T15:32:12;97635.00;;;12.00
18782;BMP180;9519;51.890;8.970;2023-04-01T15:37:32;97643.00;;;11.80
18782;BMP180;9519;51.890;8.970;2023-04-01T15:42:54;97642.00;;;11.70
18782;BMP180;9519;51.890;8.970;2023-04-01T15:48:10;97657.00;;;11.60
18782;BMP180;9519;51.890;8.970;2023-04-01T15:53:42;97656.00;;;11.40
18782;BMP180;9519;51.890;8.970;2023-04-01T15:58:59;97663.00;;;11.30
18782;BMP180;9519;51.890;8.970;2023-04-01T16:04:36;97672.00;;;11.30
18782;BMP180;9519;51.890;8.970;2023-04-01T16:09:59;97669.00;;;11.20
18782;BMP180;9519;51.890;8.970;2023-04-01T16:15:22;97691.00;;;11.00
18782;BMP180;9519;51.890;8.970;2023-04-01T16:20:44;97687.00;;;10.90
18782;BMP180;9519;51.890;8.970;2023-04-01T16:26:01;97692.00;;;10.80
18782;BMP180;9519;51.890;8.970;2023-04-01T16:31:09;97696.00;;;10.70
18782;BMP180;9519;51.890;8.970;2023-04-01T16:36:28;97701.00;;;10.60
18782;BMP180;9519;51.890;8.970;2023-04-01T16:41:36;97717.00;;;10.60
18782;BMP180;9519;51.890;8.970;2023-04-01T16:46:41;97730.00;;;10.50
18782;BMP180;9519;51.890;8.970;2023-04-01T16:51:53;97733.00;;;10.50
18782;BMP180;9519;51.890;8.970;2023-04-01T16:57:11;97738.00;;;10.50
18782;BMP180;9519;51.890;8.970;2023-04-01T17:02:21;97753.00;;;10.40
18782;BMP180;9519;51.890;8.970;2023-04-01T17:07:43;97762.00;;;10.40
18782;BMP180;9519;51.890;8.970;2023-04-01T17:12:59;97761.00;;;10.40
18782;BMP180;9519;51.890;8.970;2023-04-01T17:18:13;97776.00;;;10.40
18782;BMP180;9519;51.890;8.970;2023-04-01T17:23:26;97789.00;;;10.30
18782;BMP180;9519;51.890;8.970;2023-04-01T17:28:44;97801.00;;;10.20
18782;BMP180;9519;51.890;8.970;2023-04-01T17:34:16;97804.00;;;10.10
18782;BMP180;9519;51.890;8.970;2023-04-01T17:40:04;97802.00;;;10.10
18782;BMP180;9519;51.890;8.970;2023-04-01T17:45:23;97808.00;;;9.90
18782;BMP180;9519;51.890;8.970;2023-04-01T17:50:44;97829.00;;;9.70
18782;BMP180;9519;51.890;8.970;2023-04-01T17:56:07;97836.00;;;9.40
18782;BMP180;9519;51.890;8.970;2023-04-01T18:01:42;97841.00;;;9.20
18782;BMP180;9519;51.890;8.970;2023-04-01T18:12:38;97844.00;;;8.80
18782;BMP180;9519;51.890;8.970;2023-04-01T18:18:01;97868.00;;;8.70
18782;BMP180;9519;51.890;8.970;2023-04-01T18:23:24;97869.00;;;8.50
18782;BMP180;9519;51.890;8.970;2023-04-01T18:28:36;97963.00;;;8.40
18782;BMP180;9519;51.890;8.970;2023-04-01T18:33:50;97889.00;;;8.30
18782;BMP180;9519;51.890;8.970;2023-04-01T18:39:02;97914.00;;;8.20
18782;BMP180;9519;51.890;8.970;2023-04-01T18:44:29;97916.00;;;8.10
18782;BMP180;9519;51.890;8.970;2023-04-01T18:49:43;97914.00;;;8.00
18782;BMP180;9519;51.890;8.970;2023-04-01T18:55:22;97938.00;;;7.90
18782;BMP180;9519;51.890;8.970;2023-04-01T19:00:36;97953.00;;;7.80
18782;BMP180;9519;51.890;8.970;2023-04-01T19:05:44;97944.00;;;7.70
18782;BMP180;9519;51.890;8.970;2023-04-01T19:10:58;97976.00;;;7.70
18782;BMP180;9519;51.890;8.970;2023-04-01T19:16:12;97986.00;;;7.60
18782;BMP180;9519;51.890;8.970;2023-04-01T19:21:26;97980.00;;;7.50
18782;BMP180;9519;51.890;8.970;2023-04-01T19:26:39;97991.00;;;7.50
18782;BMP180;9519;51.890;8.970;2023-04-01T19:31:55;97997.00;;;7.40
18782;BMP180;9519;51.890;8.970;2023-04-01T19:37:10;98002.00;;;7.30
18782;BMP180;9519;51.890;8.970;2023-04-01T19:42:25;97998.00;;;7.20
18782;BMP180;9519;51.890;8.970;2023-04-01T19:47:48;98000.00;;;7.10
18782;BMP180;9519;51.890;8.970;2023-04-01T19:52:56;98027.00;;;7.00
18782;BMP180;9519;51.890;8.970;2023-04-01T19:58:09;98038.00;;;6.90
18782;BMP180;9519;51.890;8.970;2023-04-01T20:03:34;98048.00;;;6.80
18782;BMP180;9519;51.890;8.970;2023-04-01T20:08:54;98025.00;;;6.80
18782;BMP180;9519;51.890;8.970;2023-04-01T20:14:12;98052.00;;;6.70
18782;BMP180;9519;51.890;8.970;2023-04-01T20:19:27;98065.00;;;6.60
18782;BMP180;9519;51.890;8.970;2023-04-01T20:24:35;98046.00;;;6.50
18782;BMP180;9519;51.890;8.970;2023-04-01T20:35:37;98062.00;;;6.40
18782;BMP180;9519;51.890;8.970;2023-04-01T20:40:47;98087.00;;;6.30
18782;BMP180;9519;51.890;8.970;2023-04-01T20:45:58;98083.00;;;6.20
18782;BMP180;9519;51.890;8.970;2023-04-01T20:51:06;98106.00;;;6.10
18782;BMP180;9519;51.890;8.970;2023-04-01T20:56:27;98184.00;;;6.00
18782;BMP180;9519;51.890;8.970;2023-04-01T21:01:40;98108.00;;;5.90
18782;BMP180;9519;51.890;8.970;2023-04-01T21:07:04;98114.00;;;5.90
18782;BMP180;9519;51.890;8.970;2023-04-01T21:12:24;98124.00;;;5.80
18782;BMP180;9519;51.890;8.970;2023-04-01T21:17:50;98149.00;;;5.80
18782;BMP180;9519;51.890;8.970;2023-04-01T21:23:31;98142.00;;;5.70
18782;BMP180;9519;51.890;8.970;2023-04-01T21:29:05;98119.00;;;5.70
18782;BMP180;9519;51.890;8.970;2023-04-01T21:34:36;98140.00;;;5.50
18782;BMP180;9519;51.890;8.970;2023-04-01T21:40:02;98142.00;;;5.50
18782;BMP180;9519;51.890;8.970;2023-04-01T21:45:43;98138.00;;;5.40
18782;BMP180;9519;51.890;8.970;2023-04-01T21:57:54;98221.00;;;5.30
18782;BMP180;9519;51.890;8.970;2023-04-01T22:08:59;98193.00;;;5.20
18782;BMP180;9519;51.890;8.970;2023-04-01T22:14:09;98185.00;;;5.10
18782;BMP180;9519;51.890;8.970;2023-04-01T22:19:20;98197.00;;;5.10
18782;BMP180;9519;51.890;8.970;2023-04-01T22:24:41;98212.00;;;5.00
18782;BMP180;9519;51.890;8.970;2023-04-01T22:29:58;98210.00;;;4.90
18782;BMP180;9519;51.890;8.970;2023-04-01T22:35:12;98225.00;;;4.90
18782;BMP180;9519;51.890;8.970;2023-04-01T22:40:25;98241.00;;;4.90
18782;BMP180;9519;51.890;8.970;2023-04-01T22:46:00;98223.00;;;4.80
18782;BMP180;9519;51.890;8.970;2023-04-01T22:51:13;98249.00;;;4.80
18782;BMP180;9519;51.890;8.970;2023-04-01T22:56:23;98206.00;;;4.70
18782;BMP180;9519;51.890;8.970;2023-04-01T23:01:35;98239.00;;;4.60
18782;BMP180;9519;51.890;8.970;2023-04-01T23:06:46;98267.00;;;4.60
18782;BMP180;9519;51.890;8.970;2023-04-01T23:11:53;98262.00;;;4.50
18782;BMP180;9519;51.890;8.970;2023-04-01T23:17:09;98273.00;;;4.50
18782;BMP180;9519;51.890;8.970;2023-04-01T23:22:21;98249.00;;;4.40
18782;BMP180;9519;51.890;8.970;2023-04-01T23:27:33;98295.00;;;4.40
18782;BMP180;9519;51.890;8.970;2023-04-01T23:32:39;98268.00;;;4.30
18782;BMP180;9519;51.890;8.970;2023-04-01T23:37:41;98282.00;;;4.30
18782;BMP180;9519;51.890;8.970;2023-04-01T23:42:43;98291.00;;;4.20
18782;BMP180;9519;51.890;8.970;2023-04-01T23:47:48;98275.00;;;4.10
18782;BMP180;9519;51.890;8.970;2023-04-01T23:52:56;98317.00;;;4.00
18782;BMP180;9519;51.890;8.970;2023-04-01T23:58:15;98252.00;;;4.00
